createdAt,value
2022-07-29T00:00:08.848Z,52.15
2022-07-29T00:02:35.935Z,52.05
2022-07-29T00:05:04.365Z,52.09
2022-07-29T00:07:31.461Z,51.77
2022-07-29T00:09:58.649Z,51.60
2022-07-29T00:12:27.033Z,52.29
2022-07-29T00:14:55.477Z,51.91
2022-07-29T00:17:23.364Z,52.00
2022-07-29T00:19:50.301Z,51.73
2022-07-29T00:22:17.245Z,51.85
2022-07-29T00:24:44.159Z,52.30
2022-07-29T00:27:11.055Z,52.50
2022-07-29T00:29:37.963Z,52.50
2022-07-29T00:32:05.134Z,52.48
2022-07-29T00:34:50.949Z,52.77
2022-07-29T00:37:17.843Z,52.61
2022-07-29T00:39:44.912Z,52.87
2022-07-29T00:42:11.941Z,53.20
2022-07-29T00:44:43.413Z,53.51
2022-07-29T00:47:11.979Z,53.06
2022-07-29T00:49:41.207Z,53.57
2022-07-29T00:52:10.268Z,53.40
2022-07-29T00:54:44.785Z,53.72
2022-07-29T00:57:12.863Z,53.50
2022-07-29T00:59:41.388Z,53.89
2022-07-29T01:02:08.367Z,53.45
2022-07-29T01:04:36.464Z,53.86
2022-07-29T01:07:04.571Z,53.92
2022-07-29T01:09:46.438Z,53.94
2022-07-29T01:12:26.363Z,53.79
2022-07-29T01:14:55.112Z,53.71
2022-07-29T01:17:58.252Z,53.77
2022-07-29T01:20:35.906Z,53.89
2022-07-29T01:23:25.649Z,53.78
2022-07-29T01:26:43.546Z,54.01
2022-07-29T01:29:36.048Z,53.99
2022-07-29T01:32:27.746Z,54.45
2022-07-29T01:35:07.683Z,54.08
2022-07-29T01:37:55.972Z,54.72
2022-07-29T01:40:46.451Z,54.71
2022-07-29T01:43:31.260Z,54.86
2022-07-29T01:46:02.841Z,54.59
2022-07-29T01:48:44.352Z,54.85
2022-07-29T01:51:20.776Z,54.43
2022-07-29T01:53:56.043Z,54.55
2022-07-29T01:56:25.325Z,54.36
2022-07-29T01:58:54.142Z,54.66
2022-07-29T02:01:25.312Z,54.59
2022-07-29T02:03:54.527Z,54.55
2022-07-29T02:06:23.889Z,55.11
2022-07-29T02:08:53.593Z,55.42
2022-07-29T02:11:20.642Z,55.87
2022-07-29T02:13:49.558Z,55.70
2022-07-29T02:16:18.763Z,55.69
2022-07-29T02:18:49.192Z,55.39
2022-07-29T02:21:24.156Z,55.55
2022-07-29T02:23:54.065Z,55.31
2022-07-29T02:26:24.451Z,55.30
2022-07-29T02:28:55.451Z,55.33
2022-07-29T02:31:26.786Z,55.32
2022-07-29T02:33:55.305Z,55.32
2022-07-29T02:36:27.425Z,55.33
2022-07-29T02:38:58.466Z,55.13
2022-07-29T02:41:30.604Z,55.37
2022-07-29T02:44:07.585Z,55.58
2022-07-29T02:46:37.996Z,55.46
2022-07-29T02:49:38.076Z,55.51
2022-07-29T02:52:21.014Z,55.51
2022-07-29T02:54:57.179Z,55.61
2022-07-29T02:57:54.678Z,55.79
2022-07-29T03:00:25.126Z,55.82
2022-07-29T03:02:55.035Z,55.90
2022-07-29T03:05:23.530Z,55.90
2022-07-29T03:08:02.972Z,56.11
2022-07-29T03:10:30.490Z,56.27
2022-07-29T03:12:59.122Z,56.07
2022-07-29T03:15:26.721Z,56.23
2022-07-29T03:17:54.704Z,56.26
2022-07-29T03:20:22.158Z,56.25
2022-07-29T03:22:49.287Z,56.25
2022-07-29T03:25:18.916Z,56.36
2022-07-29T03:27:46.558Z,56.71
2022-07-29T03:30:18.166Z,56.99
2022-07-29T03:32:48.555Z,56.84
2022-07-29T03:35:17.503Z,57.12
2022-07-29T03:37:45.351Z,56.91
2022-07-29T03:40:19.341Z,56.87
2022-07-29T03:42:47.985Z,56.94
2022-07-29T03:45:19.034Z,56.78
2022-07-29T03:48:00.717Z,56.80
2022-07-29T03:50:30.144Z,57.07
2022-07-29T03:52:57.438Z,57.04
2022-07-29T03:55:25.247Z,56.97
2022-07-29T03:57:52.593Z,56.98
2022-07-29T04:00:20.444Z,57.00
2022-07-29T04:02:49.495Z,57.01
2022-07-29T04:05:18.020Z,56.97
2022-07-29T04:07:46.940Z,57.05
2022-07-29T04:10:14.431Z,57.20
2022-07-29T04:12:41.393Z,56.95
2022-07-29T04:15:08.920Z,57.20
2022-07-29T04:17:35.823Z,57.00
2022-07-29T04:20:02.722Z,57.38
2022-07-29T04:22:29.628Z,57.29
2022-07-29T04:25:00.355Z,56.94
2022-07-29T04:27:30.520Z,56.83
2022-07-29T04:29:57.658Z,56.96
2022-07-29T04:32:26.126Z,56.87
2022-07-29T04:34:53.636Z,56.88
2022-07-29T04:37:20.551Z,56.94
2022-07-29T04:39:47.455Z,56.80
2022-07-29T04:42:14.541Z,56.75
2022-07-29T04:44:43.266Z,56.87
2022-07-29T04:47:10.532Z,56.86
2022-07-29T04:49:40.497Z,57.02
2022-07-29T04:52:08.045Z,56.83
2022-07-29T04:54:34.968Z,56.72
2022-07-29T04:57:01.941Z,56.95
2022-07-29T04:59:28.917Z,57.15
2022-07-29T05:01:55.882Z,57.13
2022-07-29T05:04:22.858Z,56.78
2022-07-29T05:06:50.238Z,56.86
2022-07-29T05:09:17.166Z,56.98
2022-07-29T05:11:44.097Z,56.45
2022-07-29T05:14:11.014Z,56.67
2022-07-29T05:16:37.965Z,56.70
2022-07-29T05:19:04.897Z,56.27
2022-07-29T05:21:31.816Z,56.54
2022-07-29T05:23:59.081Z,56.51
2022-07-29T05:26:25.988Z,56.59
2022-07-29T05:28:53.066Z,57.44
2022-07-29T05:31:20.024Z,57.46
2022-07-29T05:33:47.006Z,57.51
2022-07-29T05:36:13.914Z,57.64
2022-07-29T05:38:40.816Z,57.59
2022-07-29T05:41:07.821Z,57.97
2022-07-29T05:43:34.765Z,57.95
2022-07-29T05:46:01.945Z,58.15
2022-07-29T05:48:29.140Z,58.12
2022-07-29T05:50:56.207Z,58.30
2022-07-29T05:53:23.691Z,58.27
2022-07-29T05:55:51.414Z,58.00
2022-07-29T05:58:18.337Z,58.33
2022-07-29T06:00:45.620Z,58.03
2022-07-29T06:03:12.804Z,57.95
2022-07-29T06:05:39.728Z,57.93
2022-07-29T06:08:08.126Z,58.01
2022-07-29T06:10:38.677Z,57.94
2022-07-29T06:13:05.612Z,58.66
2022-07-29T06:15:32.790Z,58.62
2022-07-29T06:18:01.550Z,58.91
2022-07-29T06:20:33.067Z,58.92
2022-07-29T06:23:00.887Z,58.47
2022-07-29T06:25:31.384Z,58.61
2022-07-29T06:27:58.861Z,58.10
2022-07-29T06:30:25.894Z,58.50
2022-07-29T06:32:52.918Z,58.10
2022-07-29T06:35:38.676Z,57.89
2022-07-29T06:38:25.638Z,57.50
2022-07-29T06:41:03.664Z,57.07
2022-07-29T06:43:35.057Z,56.86
2022-07-29T06:46:05.415Z,56.64
2022-07-29T06:48:33.897Z,56.84
2022-07-29T06:51:01.445Z,56.77
2022-07-29T06:53:29.620Z,56.73
2022-07-29T06:55:56.748Z,56.19
2022-07-29T06:58:23.683Z,55.82
2022-07-29T07:00:57.044Z,55.50
2022-07-29T07:03:24.053Z,55.37
2022-07-29T07:05:50.992Z,55.51
2022-07-29T07:08:18.025Z,55.29
2022-07-29T07:10:45.058Z,54.92
2022-07-29T07:13:12.123Z,54.26
2022-07-29T07:15:40.268Z,54.35
2022-07-29T07:18:08.199Z,54.36
2022-07-29T07:20:36.414Z,54.32
2022-07-29T07:23:03.830Z,54.22
2022-07-29T07:25:30.869Z,54.37
2022-07-29T07:27:57.965Z,54.41
2022-07-29T07:30:24.904Z,53.97
2022-07-29T07:32:52.048Z,53.28
2022-07-29T07:35:19.008Z,53.03
2022-07-29T07:37:45.932Z,52.47
2022-07-29T07:40:14.009Z,52.54
2022-07-29T07:42:45.991Z,52.28
2022-07-29T07:45:16.122Z,51.97
2022-07-29T07:47:44.165Z,51.69
2022-07-29T07:50:18.731Z,51.44
2022-07-29T07:52:58.894Z,51.37
2022-07-29T07:55:26.861Z,51.26
2022-07-29T07:57:54.681Z,50.94
2022-07-29T08:00:22.798Z,50.45
2022-07-29T08:02:51.023Z,50.67
2022-07-29T08:05:18.476Z,50.60
2022-07-29T08:07:47.395Z,49.79
2022-07-29T08:10:39.974Z,50.25
2022-07-29T08:13:09.831Z,50.41
2022-07-29T08:15:37.469Z,50.29
2022-07-29T08:18:08.642Z,49.82
2022-07-29T08:20:36.883Z,49.15
2022-07-29T08:23:05.583Z,49.59
2022-07-29T08:25:33.635Z,48.99
2022-07-29T08:28:06.295Z,48.74
2022-07-29T08:30:33.349Z,48.72
2022-07-29T08:33:00.701Z,48.64
2022-07-29T08:35:33.384Z,48.80
2022-07-29T08:38:02.071Z,49.29
2022-07-29T08:40:31.976Z,48.75
2022-07-29T08:43:04.830Z,49.13
2022-07-29T08:45:49.480Z,48.58
2022-07-29T08:48:19.081Z,48.75
2022-07-29T08:50:47.842Z,48.53
2022-07-29T08:53:18.556Z,48.15
2022-07-29T08:55:48.008Z,48.16
2022-07-29T08:58:16.531Z,48.16
2022-07-29T09:00:53.014Z,47.44
2022-07-29T09:03:25.702Z,47.38
2022-07-29T09:05:53.115Z,47.08
2022-07-29T09:08:21.023Z,47.22
2022-07-29T09:10:48.226Z,47.14
2022-07-29T09:13:15.190Z,46.79
2022-07-29T09:15:42.132Z,47.03
2022-07-29T09:18:20.421Z,46.28
2022-07-29T09:21:14.729Z,46.44
2022-07-29T09:23:42.651Z,45.71
2022-07-29T09:26:09.596Z,45.90
2022-07-29T09:28:43.413Z,45.76
2022-07-29T09:31:10.555Z,45.78
2022-07-29T09:33:40.289Z,45.56
2022-07-29T09:36:09.677Z,45.40
2022-07-29T09:38:38.201Z,45.71
2022-07-29T09:41:07.036Z,44.58
2022-07-29T09:43:35.009Z,44.00
2022-07-29T09:46:12.925Z,43.34
2022-07-29T09:48:40.079Z,43.31
2022-07-29T09:51:20.658Z,43.79
2022-07-29T09:53:49.326Z,43.92
2022-07-29T09:56:16.281Z,43.29
2022-07-29T09:58:43.201Z,44.08
2022-07-29T10:01:10.240Z,43.96
2022-07-29T10:03:54.063Z,43.46
2022-07-29T10:06:21.018Z,43.57
2022-07-29T10:08:48.022Z,43.15
2022-07-29T10:11:18.060Z,42.16
2022-07-29T10:13:47.579Z,41.90
2022-07-29T10:16:16.514Z,42.05
2022-07-29T10:18:44.831Z,41.66
2022-07-29T10:21:22.565Z,40.49
2022-07-29T10:24:01.242Z,40.70
2022-07-29T10:26:29.800Z,40.65
2022-07-29T10:28:57.015Z,40.41
2022-07-29T10:31:37.763Z,40.06
2022-07-29T10:34:56.787Z,39.25
2022-07-29T10:38:08.021Z,39.75
2022-07-29T10:41:32.244Z,39.59
2022-07-29T10:44:23.972Z,39.06
2022-07-29T10:46:52.417Z,39.03
2022-07-29T10:49:24.736Z,39.17
2022-07-29T10:51:58.724Z,39.18
2022-07-29T10:54:46.151Z,38.90
2022-07-29T10:57:54.079Z,38.32
2022-07-29T11:00:16.918Z,38.11
2022-07-29T11:02:46.429Z,38.02
2022-07-29T11:05:20.129Z,37.53
2022-07-29T11:08:20.543Z,37.97
2022-07-29T11:10:52.520Z,38.18
2022-07-29T11:13:52.247Z,38.32
2022-07-29T11:16:23.066Z,38.27
2022-07-29T11:19:14.167Z,38.21
2022-07-29T11:22:05.177Z,38.27
2022-07-29T11:24:33.205Z,37.77
2022-07-29T11:27:09.851Z,37.20
2022-07-29T11:29:50.508Z,36.84
2022-07-29T11:32:22.636Z,37.29
2022-07-29T11:35:17.280Z,37.91
2022-07-29T11:38:23.505Z,38.08
2022-07-29T11:41:25.857Z,38.21
2022-07-29T11:43:56.768Z,37.43
2022-07-29T11:49:45.512Z,37.65
2022-07-29T11:52:15.581Z,37.75
2022-07-29T11:57:37.373Z,37.55
2022-07-29T12:00:12.281Z,38.00
2022-07-29T12:05:52.861Z,38.49
2022-07-29T12:07:03.676Z,37.54
2022-07-29T12:08:22.938Z,37.57
2022-07-29T12:10:51.780Z,37.49
2022-07-29T12:13:22.927Z,37.51
2022-07-29T12:16:04.620Z,37.66
2022-07-29T12:18:32.820Z,37.30
2022-07-29T12:21:08.667Z,37.07
2022-07-29T12:23:35.801Z,36.91
2022-07-29T12:26:07.312Z,37.30
2022-07-29T12:28:40.509Z,37.13
2022-07-29T12:31:14.966Z,37.18
2022-07-29T12:34:01.867Z,38.03
2022-07-29T12:36:28.845Z,37.49
2022-07-29T12:38:55.783Z,37.56
2022-07-29T12:41:23.272Z,37.44
2022-07-29T12:43:56.763Z,37.88
2022-07-29T12:46:24.022Z,37.64
2022-07-29T12:48:55.974Z,37.21
2022-07-29T12:51:41.043Z,37.42
2022-07-29T12:54:16.261Z,37.43
2022-07-29T12:56:45.823Z,37.70
2022-07-29T12:59:21.926Z,37.62
2022-07-29T13:01:52.019Z,37.64
2022-07-29T13:04:27.804Z,36.89
2022-07-29T13:07:10.404Z,36.77
2022-07-29T13:09:49.277Z,36.87
2022-07-29T13:12:16.235Z,36.49
2022-07-29T13:14:48.621Z,36.43
2022-07-29T13:17:24.123Z,36.35
2022-07-29T13:19:52.931Z,35.84
2022-07-29T13:22:21.655Z,35.91
2022-07-29T13:25:02.904Z,36.40
2022-07-29T13:27:33.142Z,36.01
2022-07-29T13:30:02.408Z,35.67
2022-07-29T13:32:31.470Z,35.42
2022-07-29T13:35:01.720Z,35.70
2022-07-29T13:37:35.732Z,35.60
2022-07-29T13:40:04.435Z,35.90
2022-07-29T13:42:32.850Z,35.71
2022-07-29T13:45:00.428Z,36.04
2022-07-29T13:47:32.759Z,35.48
2022-07-29T13:50:02.172Z,35.35
2022-07-29T13:52:29.445Z,33.99
2022-07-29T13:54:56.426Z,32.80
2022-07-29T13:57:23.387Z,32.36
2022-07-29T13:59:54.205Z,32.43
2022-07-29T14:02:25.832Z,32.28
2022-07-29T14:04:54.525Z,32.29
2022-07-29T14:07:22.355Z,31.28
2022-07-29T14:09:49.265Z,30.93
2022-07-29T14:12:16.244Z,31.42
2022-07-29T14:14:43.228Z,31.09
2022-07-29T14:17:10.511Z,30.08
2022-07-29T14:19:38.973Z,30.48
2022-07-29T14:22:08.505Z,30.56
2022-07-29T14:24:37.324Z,31.68
2022-07-29T14:27:05.744Z,31.51
2022-07-29T14:29:37.636Z,29.95
2022-07-29T14:32:11.079Z,31.59
2022-07-29T14:34:38.762Z,32.42
2022-07-29T14:37:06.757Z,32.14
2022-07-29T14:39:42.093Z,32.57
2022-07-29T14:42:11.660Z,33.11
2022-07-29T14:44:40.892Z,33.39
2022-07-29T14:47:08.600Z,33.96
2022-07-29T14:49:36.397Z,34.51
2022-07-29T14:52:04.031Z,34.48
2022-07-29T14:54:30.953Z,34.12
2022-07-29T14:56:58.642Z,34.34
2022-07-29T14:59:27.054Z,33.91
2022-07-29T15:01:54.181Z,34.17
2022-07-29T15:04:21.184Z,34.20
2022-07-29T15:06:48.433Z,34.01
2022-07-29T15:09:15.365Z,33.85
2022-07-29T15:11:42.312Z,34.16
2022-07-29T15:14:09.247Z,34.23
2022-07-29T15:16:48.005Z,34.38
2022-07-29T15:19:15.341Z,35.01
2022-07-29T15:21:48.125Z,34.71
2022-07-29T15:24:19.549Z,34.86
2022-07-29T15:26:47.133Z,35.01
2022-07-29T15:29:15.322Z,35.36
2022-07-29T15:31:42.719Z,35.24
2022-07-29T15:34:09.718Z,35.03
2022-07-29T15:36:53.396Z,34.38
2022-07-29T15:39:22.360Z,34.41
2022-07-29T15:41:51.074Z,34.21
2022-07-29T15:44:18.769Z,34.37
2022-07-29T15:47:03.796Z,34.37
2022-07-29T15:49:47.555Z,34.20
2022-07-29T15:52:19.034Z,34.23
2022-07-29T15:54:51.765Z,33.95
2022-07-29T15:57:18.703Z,34.87
2022-07-29T15:59:45.600Z,34.82
2022-07-29T16:02:12.598Z,34.86
2022-07-29T16:04:39.574Z,34.53
2022-07-29T16:07:07.066Z,34.65
2022-07-29T16:09:33.962Z,34.22
2022-07-29T16:12:00.890Z,34.76
2022-07-29T16:14:28.261Z,34.69
2022-07-29T16:16:56.444Z,34.46
2022-07-29T16:19:23.693Z,34.85
2022-07-29T16:21:50.636Z,34.44
2022-07-29T16:24:18.190Z,34.54
2022-07-29T16:26:45.101Z,34.69
2022-07-29T16:29:12.006Z,34.80
2022-07-29T16:31:39.079Z,35.13
2022-07-29T16:34:06.245Z,35.34
2022-07-29T16:36:33.159Z,35.42
2022-07-29T16:39:00.059Z,35.60
2022-07-29T16:41:27.147Z,36.08
2022-07-29T16:43:55.275Z,36.31
2022-07-29T16:46:22.343Z,36.12
2022-07-29T16:48:51.388Z,36.10
2022-07-29T16:51:18.358Z,35.67
2022-07-29T16:53:45.607Z,35.70
2022-07-29T16:56:16.040Z,35.60
2022-07-29T16:58:43.994Z,35.47
2022-07-29T17:01:12.010Z,35.20
2022-07-29T17:04:00.396Z,35.05
2022-07-29T17:06:29.444Z,35.86
2022-07-29T17:08:56.830Z,35.35
2022-07-29T17:11:53.508Z,35.22
2022-07-29T17:14:11.186Z,35.02
2022-07-29T17:16:38.285Z,35.03
2022-07-29T17:19:05.324Z,34.99
2022-07-29T17:21:32.288Z,35.32
2022-07-29T17:23:59.422Z,35.39
2022-07-29T17:26:28.167Z,35.74
2022-07-29T17:28:55.743Z,35.58
2022-07-29T17:31:23.324Z,35.73
2022-07-29T17:33:50.476Z,35.79
2022-07-29T17:36:24.227Z,36.27
2022-07-29T17:39:04.984Z,36.47
2022-07-29T17:41:31.943Z,36.58
2022-07-29T17:43:58.922Z,36.72
2022-07-29T17:46:27.426Z,37.02
2022-07-29T17:48:56.183Z,37.25
2022-07-29T17:51:24.697Z,37.46
2022-07-29T17:53:51.758Z,37.16
2022-07-29T17:56:18.695Z,37.48
2022-07-29T17:58:47.336Z,38.45
2022-07-29T18:01:15.415Z,38.57
2022-07-29T18:03:43.586Z,38.35
2022-07-29T18:06:10.563Z,38.89
2022-07-29T18:08:37.715Z,39.18
2022-07-29T18:11:05.008Z,39.37
2022-07-29T18:13:31.895Z,39.54
2022-07-29T18:16:00.713Z,39.68
2022-07-29T18:18:28.011Z,40.38
2022-07-29T18:20:55.283Z,40.15
2022-07-29T18:23:22.220Z,41.02
2022-07-29T18:25:49.138Z,41.22
2022-07-29T18:28:16.026Z,41.18
2022-07-29T18:30:45.000Z,41.32
2022-07-29T18:33:22.172Z,41.79
2022-07-29T18:35:52.309Z,42.37
2022-07-29T18:38:33.644Z,42.90
2022-07-29T18:41:00.565Z,42.93
2022-07-29T18:43:27.491Z,43.21
2022-07-29T18:45:54.403Z,43.76
2022-07-29T18:48:21.496Z,44.39
2022-07-29T18:50:48.469Z,44.94
2022-07-29T18:53:15.373Z,44.67
2022-07-29T18:55:42.365Z,44.67
2022-07-29T18:58:09.256Z,44.94
2022-07-29T19:00:36.164Z,45.67
2022-07-29T19:03:03.502Z,45.81
2022-07-29T19:05:30.659Z,45.83
2022-07-29T19:07:57.674Z,45.77
2022-07-29T19:10:24.596Z,45.97
2022-07-29T19:12:51.667Z,45.89
2022-07-29T19:15:19.985Z,46.63
2022-07-29T19:17:48.559Z,47.10
2022-07-29T19:20:15.931Z,46.15
2022-07-29T19:22:42.940Z,47.02
2022-07-29T19:25:10.094Z,47.45
2022-07-29T19:27:37.072Z,46.75
2022-07-29T19:30:08.073Z,47.33
2022-07-29T19:32:35.759Z,47.21
2022-07-29T19:35:21.061Z,47.53
2022-07-29T19:37:48.005Z,47.40
2022-07-29T19:40:16.200Z,47.46
2022-07-29T19:42:43.669Z,47.65
2022-07-29T19:45:11.828Z,47.64
2022-07-29T19:47:38.913Z,47.90
2022-07-29T19:50:06.864Z,48.53
2022-07-29T19:52:33.794Z,48.15
2022-07-29T19:55:06.821Z,48.17
2022-07-29T19:57:40.859Z,48.57
2022-07-29T20:00:11.253Z,49.07
2022-07-29T20:02:40.351Z,49.37
2022-07-29T20:05:11.625Z,48.85
2022-07-29T20:07:39.355Z,49.21
2022-07-29T20:10:08.397Z,49.21
2022-07-29T20:12:37.345Z,49.44
2022-07-29T20:15:07.197Z,49.57
2022-07-29T20:17:39.685Z,49.88
2022-07-29T20:20:08.600Z,49.50
2022-07-29T20:22:36.868Z,49.54
2022-07-29T20:25:05.979Z,50.08
2022-07-29T20:27:36.059Z,49.39
2022-07-29T20:30:04.100Z,49.29
2022-07-29T20:32:31.607Z,49.70
2022-07-29T20:34:58.533Z,49.83
2022-07-29T20:37:25.432Z,49.91
2022-07-29T20:39:52.359Z,49.78
2022-07-29T20:42:19.275Z,50.20
2022-07-29T20:44:46.620Z,49.76
2022-07-29T20:47:13.557Z,50.33
2022-07-29T20:49:40.564Z,50.13
2022-07-29T20:52:07.521Z,49.90
2022-07-29T20:54:34.575Z,50.36
2022-07-29T20:57:01.835Z,50.34
2022-07-29T20:59:29.060Z,50.48
2022-07-29T21:01:55.999Z,50.18
2022-07-29T21:04:22.979Z,50.39
2022-07-29T21:06:58.303Z,50.52
2022-07-29T21:09:25.392Z,50.75
2022-07-29T21:11:52.848Z,50.64
2022-07-29T21:14:38.307Z,50.60
2022-07-29T21:17:08.171Z,50.56
2022-07-29T21:19:35.319Z,51.01
2022-07-29T21:22:02.369Z,51.17
2022-07-29T21:24:29.298Z,51.00
2022-07-29T21:27:21.229Z,50.93
2022-07-29T21:29:49.345Z,51.09
2022-07-29T21:32:27.692Z,51.25
2022-07-29T21:34:57.642Z,51.02
2022-07-29T21:37:24.735Z,51.36
2022-07-29T21:39:51.794Z,51.39
2022-07-29T21:42:18.823Z,51.56
2022-07-29T21:44:45.758Z,51.50
2022-07-29T21:47:12.696Z,51.57
2022-07-29T21:49:39.735Z,51.97
2022-07-29T21:52:07.995Z,51.95
2022-07-29T21:54:36.030Z,51.92
2022-07-29T21:57:03.790Z,52.04
2022-07-29T21:59:31.853Z,51.82
2022-07-29T22:02:00.926Z,51.86
2022-07-29T22:04:31.292Z,52.38
2022-07-29T22:06:59.182Z,52.36
2022-07-29T22:09:26.526Z,52.66
2022-07-29T22:11:54.582Z,52.47
2022-07-29T22:14:22.210Z,52.80
2022-07-29T22:16:49.209Z,52.68
2022-07-29T22:19:16.160Z,52.70
2022-07-29T22:21:43.216Z,53.01
2022-07-29T22:24:10.664Z,52.99
2022-07-29T22:26:38.485Z,52.89
2022-07-29T22:29:06.537Z,53.07
2022-07-29T22:31:33.616Z,53.08
2022-07-29T22:34:00.566Z,53.06
2022-07-29T22:36:27.463Z,53.02
2022-07-29T22:38:54.389Z,53.05
2022-07-29T22:41:21.325Z,53.35
2022-07-29T22:43:48.246Z,53.42
2022-07-29T22:46:15.321Z,53.37
2022-07-29T22:48:42.318Z,53.31
2022-07-29T22:51:09.249Z,53.02
2022-07-29T22:53:37.078Z,53.30
2022-07-29T22:56:04.400Z,53.35
2022-07-29T22:58:31.368Z,53.45
2022-07-29T23:00:58.445Z,53.32
2022-07-29T23:03:25.518Z,53.65
2022-07-29T23:05:52.516Z,53.57
2022-07-29T23:08:19.807Z,53.68
2022-07-29T23:10:46.811Z,53.83
2022-07-29T23:13:14.084Z,54.03
2022-07-29T23:15:41.440Z,53.99
2022-07-29T23:18:08.353Z,53.83
2022-07-29T23:20:35.838Z,53.70
2022-07-29T23:23:02.775Z,53.78
2022-07-29T23:25:29.687Z,53.98
2022-07-29T23:27:56.599Z,54.19
2022-07-29T23:30:23.602Z,54.04
2022-07-29T23:32:50.801Z,53.87
2022-07-29T23:35:18.037Z,53.95
2022-07-29T23:37:45.745Z,53.87
2022-07-29T23:40:14.641Z,53.82
2022-07-29T23:42:42.651Z,53.99
2022-07-29T23:45:11.802Z,54.37
2022-07-29T23:47:39.117Z,54.49
2022-07-29T23:50:13.818Z,54.65
2022-07-29T23:52:41.907Z,54.36
2022-07-29T23:55:37.033Z,54.42
2022-07-29T23:57:57.476Z,54.61
